createdAt,value
2022-12-01T00:01:49.049Z,96618.44
2022-12-01T00:04:15.923Z,96618.97
2022-12-01T00:06:43.357Z,96620.25
2022-12-01T00:09:29.108Z,96625.97
2022-12-01T00:11:55.716Z,96615.72
2022-12-01T00:14:22.733Z,96609.25
2022-12-01T00:16:50.064Z,96617.63
2022-12-01T00:19:17.766Z,96611.84
2022-12-01T00:21:45.862Z,96618.56
2022-12-01T00:24:12.617Z,96612.03
2022-12-01T00:26:39.271Z,96615.13
2022-12-01T00:29:05.996Z,96615.59
2022-12-01T00:31:33.026Z,96614.41
2022-12-01T00:33:59.607Z,96610.69
2022-12-01T00:36:26.572Z,96620.91
2022-12-01T00:38:54.607Z,96621.53
2022-12-01T00:41:22.361Z,96627.34
2022-12-01T00:43:51.968Z,96618.03
2022-12-01T00:46:20.138Z,96626.25
2022-12-01T00:48:46.857Z,96631.53
2022-12-01T00:51:13.584Z,96626.09
2022-12-01T00:53:40.797Z,96633.19
2022-12-01T00:56:07.718Z,96645.59
2022-12-01T00:58:34.420Z,96654.53
2022-12-01T01:01:02.890Z,96652.81
2022-12-01T01:03:33.033Z,96650.28
2022-12-01T01:06:08.884Z,96657.47
2022-12-01T01:08:35.671Z,96653.34
2022-12-01T01:11:04.178Z,96661.38
2022-12-01T01:13:31.228Z,96660.66
2022-12-01T01:16:08.386Z,96659.94
2022-12-01T01:18:35.097Z,96662.84
2022-12-01T01:21:05.885Z,96661.13
2022-12-01T01:23:32.645Z,96657.09
2022-12-01T01:26:03.678Z,96663.69
2022-12-01T01:28:31.210Z,96667.28
2022-12-01T01:30:58.247Z,96668.50
2022-12-01T01:33:25.300Z,96661.75
2022-12-01T01:35:51.948Z,96670.81
2022-12-01T01:38:18.552Z,96672.97
2022-12-01T01:40:46.242Z,96662.97
2022-12-01T01:43:16.170Z,96658.09
2022-12-01T01:45:43.196Z,96673.13
2022-12-01T01:48:11.916Z,96675.44
2022-12-01T01:50:38.750Z,96654.44
2022-12-01T01:53:09.119Z,96663.22
2022-12-01T01:55:36.193Z,96647.72
2022-12-01T01:58:05.111Z,96649.16
2022-12-01T02:00:31.951Z,96651.56
2022-12-01T02:02:59.960Z,96647.06
2022-12-01T02:05:36.064Z,96642.81
2022-12-01T02:08:04.527Z,96638.31
2022-12-01T02:10:57.410Z,96639.28
2022-12-01T02:13:54.498Z,96637.72
2022-12-01T02:16:41.180Z,96628.09
2022-12-01T02:19:21.902Z,96624.69
2022-12-01T02:22:03.493Z,96627.53
2022-12-01T02:24:53.787Z,96627.66
2022-12-01T02:27:30.896Z,96620.69
2022-12-01T02:30:08.136Z,96619.13
2022-12-01T02:32:46.951Z,96608.81
2022-12-01T02:35:16.393Z,96601.03
2022-12-01T02:38:04.656Z,96603.09
2022-12-01T02:40:40.605Z,96595.34
2022-12-01T02:43:12.107Z,96594.88
2022-12-01T02:45:58.440Z,96588.19
2022-12-01T02:48:31.744Z,96584.06
2022-12-01T02:51:01.773Z,96582.88
2022-12-01T02:53:28.476Z,96579.44
2022-12-01T02:55:57.011Z,96579.97
2022-12-01T02:58:23.603Z,96574.88
2022-12-01T03:01:10.505Z,96576.34
2022-12-01T03:03:48.045Z,96579.44
2022-12-01T03:06:28.809Z,96574.31
2022-12-01T03:09:14.598Z,96583.69
2022-12-01T03:12:01.888Z,96576.06
2022-12-01T03:14:45.178Z,96576.44
2022-12-01T03:17:17.224Z,96576.81
2022-12-01T03:19:58.395Z,96568.31
2022-12-01T03:22:42.257Z,96563.59
2022-12-01T03:25:09.512Z,96558.34
2022-12-01T03:27:37.752Z,96563.06
2022-12-01T03:30:10.232Z,96566.97
2022-12-01T03:32:42.983Z,96560.19
2022-12-01T03:35:37.975Z,96567.72
2022-12-01T03:38:10.547Z,96561.75
2022-12-01T03:40:39.767Z,96555.94
2022-12-01T03:43:09.741Z,96554.34
2022-12-01T03:45:47.021Z,96568.00
2022-12-01T03:48:13.892Z,96566.53
2022-12-01T03:50:57.740Z,96568.59
2022-12-01T03:53:27.978Z,96563.59
2022-12-01T03:56:03.602Z,96569.22
2022-12-01T03:58:36.512Z,96564.09
2022-12-01T04:01:04.371Z,96574.19
2022-12-01T04:03:31.163Z,96567.25
2022-12-01T04:05:58.084Z,96563.97
2022-12-01T04:08:25.212Z,96567.75
2022-12-01T04:10:51.906Z,96567.97
2022-12-01T04:13:25.553Z,96569.06
2022-12-01T04:15:54.695Z,96570.16
2022-12-01T04:18:21.974Z,96562.34
2022-12-01T04:20:49.908Z,96568.81
2022-12-01T04:23:35.041Z,96571.59
2022-12-01T04:26:03.982Z,96564.78
2022-12-01T04:28:31.348Z,96557.97
2022-12-01T04:30:58.095Z,96563.44
2022-12-01T04:33:24.938Z,96562.72
2022-12-01T04:35:59.347Z,96553.22
2022-12-01T04:38:30.244Z,96557.72
2022-12-01T04:40:57.645Z,96561.47
2022-12-01T04:43:24.463Z,96552.00
2022-12-01T04:45:51.028Z,96566.22
2022-12-01T04:48:17.582Z,96559.28
2022-12-01T04:50:44.510Z,96560.28
2022-12-01T04:53:11.100Z,96555.03
2022-12-01T04:55:39.436Z,96550.06
2022-12-01T04:58:06.166Z,96556.25
2022-12-01T05:00:33.498Z,96561.69
2022-12-01T05:03:02.268Z,96560.97
2022-12-01T05:05:29.577Z,96558.41
2022-12-01T05:07:56.300Z,96558.66
2022-12-01T05:10:22.925Z,96562.28
2022-12-01T05:12:50.634Z,96557.06
2022-12-01T05:15:17.480Z,96559.00
2022-12-01T05:17:44.758Z,96564.44
2022-12-01T05:20:38.115Z,96562.75
2022-12-01T05:23:06.319Z,96562.97
2022-12-01T05:25:34.008Z,96563.22
2022-12-01T05:28:02.205Z,96567.72
2022-12-01T05:30:29.076Z,96574.88
2022-12-01T05:32:55.927Z,96569.63
2022-12-01T05:35:23.977Z,96565.41
2022-12-01T05:37:50.597Z,96563.69
2022-12-01T05:40:17.313Z,96563.78
2022-12-01T05:42:43.927Z,96562.94
2022-12-01T05:45:10.757Z,96564.00
2022-12-01T05:47:37.750Z,96559.66
2022-12-01T05:50:06.291Z,96562.53
2022-12-01T05:52:36.133Z,96562.53
2022-12-01T05:55:04.358Z,96562.53
2022-12-01T05:57:32.141Z,96570.66
2022-12-01T05:59:59.362Z,96561.31
2022-12-01T06:02:28.803Z,96562.06
2022-12-01T06:04:55.562Z,96575.50
2022-12-01T06:07:23.505Z,96577.34
2022-12-01T06:09:50.359Z,96581.91
2022-12-01T06:12:17.299Z,96567.81
2022-12-01T06:14:44.212Z,96563.69
2022-12-01T06:17:11.415Z,96571.59
2022-12-01T06:19:38.657Z,96566.25
2022-12-01T06:22:05.404Z,96557.63
2022-12-01T06:24:31.946Z,96558.34
2022-12-01T06:26:58.763Z,96581.25
2022-12-01T06:29:25.415Z,96583.13
2022-12-01T06:31:52.068Z,96587.75
2022-12-01T06:34:18.678Z,96586.06
2022-12-01T06:36:45.247Z,96576.28
2022-12-01T06:39:11.862Z,96584.19
2022-12-01T06:41:39.017Z,96590.97
2022-12-01T06:44:05.786Z,96588.84
2022-12-01T06:46:32.577Z,96591.91
2022-12-01T06:48:59.333Z,96594.91
2022-12-01T06:51:26.789Z,96592.56
2022-12-01T06:53:59.735Z,96585.22
2022-12-01T06:56:30.706Z,96592.13
2022-12-01T06:58:59.963Z,96597.91
2022-12-01T07:01:27.097Z,96596.38
2022-12-01T07:03:54.786Z,96599.81
2022-12-01T07:06:21.460Z,96604.19
2022-12-01T07:08:48.346Z,96606.19
2022-12-01T07:11:15.693Z,96602.53
2022-12-01T07:13:45.243Z,96617.59
2022-12-01T07:16:12.104Z,96621.19
2022-12-01T07:18:40.425Z,96623.78
2022-12-01T07:21:14.309Z,96628.19
2022-12-01T07:23:41.056Z,96626.38
2022-12-01T07:26:10.562Z,96626.38
2022-12-01T07:28:37.236Z,96632.25
2022-12-01T07:31:06.255Z,96636.59
2022-12-01T07:33:34.297Z,96638.31
2022-12-01T07:36:02.141Z,96634.56
2022-12-01T07:38:32.396Z,96639.81
2022-12-01T07:41:03.700Z,96644.25
2022-12-01T07:43:31.861Z,96640.66
2022-12-01T07:46:10.593Z,96638.81
2022-12-01T07:48:38.620Z,96640.56
2022-12-01T07:51:10.434Z,96644.06
2022-12-01T07:53:37.325Z,96643.09
2022-12-01T07:56:08.630Z,96646.63
2022-12-01T07:58:36.302Z,96635.00
2022-12-01T08:01:09.157Z,96635.00
2022-12-01T08:03:36.584Z,96639.47
2022-12-01T08:06:05.344Z,96634.25
2022-12-01T08:08:33.681Z,96637.00
2022-12-01T08:11:02.104Z,96636.81
2022-12-01T08:13:28.899Z,96648.41
2022-12-01T08:15:55.762Z,96637.88
2022-12-01T08:18:23.924Z,96635.31
2022-12-01T08:20:51.191Z,96640.66
2022-12-01T08:23:18.808Z,96647.81
2022-12-01T08:25:46.252Z,96641.59
2022-12-01T08:28:12.909Z,96645.22
2022-12-01T08:30:39.774Z,96633.94
2022-12-01T08:33:06.406Z,96633.38
2022-12-01T08:35:35.582Z,96637.56
2022-12-01T08:38:03.077Z,96643.00
2022-12-01T08:40:31.368Z,96639.47
2022-12-01T08:42:58.735Z,96641.28
2022-12-01T08:45:25.285Z,96632.25
2022-12-01T08:47:53.553Z,96625.19
2022-12-01T08:50:20.168Z,96629.97
2022-12-01T08:52:47.033Z,96611.94
2022-12-01T08:55:13.570Z,96613.97
2022-12-01T08:57:40.263Z,96615.44
2022-12-01T09:00:07.701Z,96617.78
2022-12-01T09:02:34.733Z,96616.47
2022-12-01T09:05:01.637Z,96611.47
2022-12-01T09:07:28.975Z,96621.56
2022-12-01T09:09:55.703Z,96624.00
2022-12-01T09:12:22.349Z,96621.88
2022-12-01T09:14:49.706Z,96627.94
2022-12-01T09:17:17.286Z,96635.69
2022-12-01T09:19:44.342Z,96636.34
2022-12-01T09:22:11.794Z,96635.75
2022-12-01T09:24:38.777Z,96643.00
2022-12-01T09:27:05.750Z,96653.78
2022-12-01T09:29:33.340Z,96654.88
2022-12-01T09:32:00.851Z,96661.84
2022-12-01T09:34:29.083Z,96658.88
2022-12-01T09:36:57.920Z,96660.16
2022-12-01T09:39:25.246Z,96670.47
2022-12-01T09:41:54.350Z,96665.81
2022-12-01T09:44:41.498Z,96668.13
2022-12-01T09:47:19.255Z,96660.59
2022-12-01T09:49:51.924Z,96660.53
2022-12-01T09:52:19.818Z,96663.38
2022-12-01T09:54:49.781Z,96669.56
2022-12-01T09:57:49.214Z,96671.28
2022-12-01T10:00:20.796Z,96667.94
2022-12-01T10:03:01.158Z,96669.81
2022-12-01T10:05:34.488Z,96663.03
2022-12-01T10:08:03.975Z,96666.84
2022-12-01T10:10:35.518Z,96665.25
2022-12-01T10:13:02.920Z,96652.28
2022-12-01T10:15:52.686Z,96646.38
2022-12-01T10:18:56.493Z,96645.91
2022-12-01T10:21:38.148Z,96642.63
2022-12-01T10:24:28.227Z,96641.91
2022-12-01T10:27:23.217Z,96639.59
2022-12-01T10:30:02.647Z,96639.00
2022-12-01T10:32:51.612Z,96639.34
2022-12-01T10:35:21.660Z,96636.31
2022-12-01T10:37:56.878Z,96634.13
2022-12-01T10:40:23.871Z,96634.59
2022-12-01T10:42:51.176Z,96624.28
2022-12-01T10:45:25.087Z,96624.78
2022-12-01T10:48:11.248Z,96620.75
2022-12-01T10:50:37.832Z,96619.28
2022-12-01T10:53:04.756Z,96616.81
2022-12-01T10:55:35.490Z,96618.16
2022-12-01T10:58:14.896Z,96614.25
2022-12-01T11:00:59.548Z,96613.84
2022-12-01T11:03:32.347Z,96614.56
2022-12-01T11:06:01.512Z,96616.75
2022-12-01T11:08:41.683Z,96625.97
2022-12-01T11:11:29.092Z,96615.88
2022-12-01T11:13:57.019Z,96619.25
2022-12-01T11:16:38.934Z,96610.03
2022-12-01T11:19:10.425Z,96604.41
2022-12-01T11:21:46.559Z,96604.03
2022-12-01T11:24:45.620Z,96602.91
2022-12-01T11:27:21.132Z,96606.78
2022-12-01T11:29:49.921Z,96606.38
2022-12-01T11:32:27.140Z,96613.78
2022-12-01T11:35:00.485Z,96614.25
2022-12-01T11:38:13.154Z,96612.88
2022-12-01T11:40:46.211Z,96607.81
2022-12-01T11:43:22.678Z,96607.41
2022-12-01T11:45:49.570Z,96612.41
2022-12-01T11:48:25.840Z,96608.34
2022-12-01T11:51:14.428Z,96601.78
2022-12-01T11:53:42.935Z,96609.53
2022-12-01T11:56:28.637Z,96601.22
2022-12-01T11:59:01.988Z,96605.94
2022-12-01T12:01:54.615Z,96608.19
2022-12-01T12:04:39.926Z,96614.88
2022-12-01T12:07:30.410Z,96617.19
2022-12-01T12:10:32.196Z,96609.13
2022-12-01T12:13:26.883Z,96600.69
2022-12-01T12:16:02.777Z,96590.81
2022-12-01T12:18:35.224Z,96583.38
2022-12-01T12:21:27.507Z,96581.28
2022-12-01T12:24:13.905Z,96569.19
2022-12-01T12:26:50.186Z,96566.53
2022-12-01T12:29:29.415Z,96557.81
2022-12-01T12:31:55.987Z,96560.69
2022-12-01T12:34:57.630Z,96553.53
2022-12-01T12:37:59.356Z,96552.84
2022-12-01T12:40:42.525Z,96547.53
2022-12-01T12:43:34.899Z,96541.19
2022-12-01T12:46:14.700Z,96542.91
2022-12-01T12:49:18.659Z,96540.84
2022-12-01T12:51:47.577Z,96541.59
2022-12-01T12:54:52.691Z,96544.75
2022-12-01T12:57:27.390Z,96539.41
2022-12-01T13:00:04.279Z,96536.28
2022-12-01T13:02:50.835Z,96540.28
2022-12-01T13:05:28.651Z,96535.41
2022-12-01T13:08:06.432Z,96534.06
2022-12-01T13:10:39.822Z,96545.97
2022-12-01T13:13:17.654Z,96536.81
2022-12-01T13:15:45.542Z,96535.63
2022-12-01T13:18:40.018Z,96534.28
2022-12-01T13:21:07.358Z,96536.44
2022-12-01T13:23:35.431Z,96534.03
2022-12-01T13:26:05.788Z,96538.88
2022-12-01T13:28:40.708Z,96534.84
2022-12-01T13:31:08.268Z,96528.88
2022-12-01T13:33:35.882Z,96538.09
2022-12-01T13:36:44.728Z,96531.28
2022-12-01T13:38:59.188Z,96528.97
2022-12-01T13:41:33.039Z,96526.63
2022-12-01T13:44:21.150Z,96527.81
2022-12-01T13:46:47.983Z,96521.13
2022-12-01T13:49:46.495Z,96523.16
2022-12-01T13:52:22.489Z,96524.53
2022-12-01T13:55:07.374Z,96525.69
2022-12-01T13:57:45.476Z,96528.59
2022-12-01T14:00:32.429Z,96531.63
2022-12-01T14:03:12.016Z,96530.13
2022-12-01T14:05:41.714Z,96522.38
2022-12-01T14:08:23.495Z,96522.69
2022-12-01T14:11:02.716Z,96524.78
2022-12-01T14:13:30.890Z,96521.56
2022-12-01T14:15:59.883Z,96526.19
2022-12-01T14:18:35.768Z,96521.94
2022-12-01T14:21:05.756Z,96522.25
2022-12-01T14:23:34.713Z,96523.34
2022-12-01T14:26:19.660Z,96528.13
2022-12-01T14:28:55.289Z,96532.72
2022-12-01T14:31:24.529Z,96520.47
2022-12-01T14:34:08.286Z,96521.66
2022-12-01T14:36:43.525Z,96518.25
2022-12-01T14:39:19.656Z,96515.78
2022-12-01T14:41:49.289Z,96514.22
2022-12-01T14:44:34.681Z,96510.91
2022-12-01T14:47:06.605Z,96514.56
2022-12-01T14:49:49.681Z,96510.28
2022-12-01T14:52:28.432Z,96507.84
2022-12-01T14:54:57.561Z,96520.44
2022-12-01T14:57:38.268Z,96511.91
2022-12-01T15:00:06.782Z,96518.09
2022-12-01T15:02:34.791Z,96520.88
2022-12-01T15:05:06.904Z,96517.47
2022-12-01T15:07:39.389Z,96523.78
2022-12-01T15:10:06.995Z,96515.97
2022-12-01T15:12:33.740Z,96521.56
2022-12-01T15:15:00.598Z,96516.31
2022-12-01T15:17:30.482Z,96514.00
2022-12-01T15:19:57.332Z,96520.19
2022-12-01T15:22:29.088Z,96518.59
2022-12-01T15:25:05.815Z,96522.19
2022-12-01T15:27:33.277Z,96518.78
2022-12-01T15:30:04.196Z,96519.75
2022-12-01T15:32:32.593Z,96514.53
2022-12-01T15:35:05.330Z,96519.00
2022-12-01T15:37:41.249Z,96523.59
2022-12-01T15:40:59.742Z,96523.72
2022-12-01T15:43:05.572Z,96522.09
2022-12-01T15:45:44.731Z,96523.09
2022-12-01T15:48:16.909Z,96517.00
2022-12-01T15:50:46.711Z,96515.28
2022-12-01T15:53:29.375Z,96519.88
2022-12-01T15:55:59.235Z,96525.28
2022-12-01T15:58:30.191Z,96519.94
2022-12-01T16:01:02.670Z,96515.59
2022-12-01T16:03:29.727Z,96515.69
2022-12-01T16:05:57.275Z,96515.06
2022-12-01T16:08:27.523Z,96522.09
2022-12-01T16:11:17.790Z,96517.63
2022-12-01T16:13:50.251Z,96521.22
2022-12-01T16:16:36.100Z,96514.22
2022-12-01T16:19:07.445Z,96511.75
2022-12-01T16:21:47.276Z,96513.56
2022-12-01T16:24:17.244Z,96515.41
2022-12-01T16:26:52.826Z,96511.00
2022-12-01T16:29:20.988Z,96515.59
2022-12-01T16:32:12.404Z,96514.75
2022-12-01T16:34:46.010Z,96520.19
2022-12-01T16:37:14.657Z,96522.94
2022-12-01T16:39:42.851Z,96515.94
2022-12-01T16:42:12.928Z,96522.19
2022-12-01T16:44:39.857Z,96525.84
2022-12-01T16:47:17.216Z,96516.13
2022-12-01T16:49:43.830Z,96513.56
2022-12-01T16:54:58.304Z,96520.81
2022-12-01T16:57:24.892Z,96520.81
2022-12-01T16:59:51.574Z,96519.13
2022-12-01T17:02:18.239Z,96521.78
2022-12-01T17:04:44.941Z,96517.41
2022-12-01T17:07:12.884Z,96521.78
2022-12-01T17:09:39.527Z,96522.88
2022-12-01T17:12:06.238Z,96522.88
2022-12-01T17:14:32.919Z,96519.31
2022-12-01T17:16:59.635Z,96516.91
2022-12-01T17:19:26.231Z,96524.78
2022-12-01T17:21:52.964Z,96514.53
2022-12-01T17:24:21.837Z,96517.94
2022-12-01T17:26:49.042Z,96519.75
2022-12-01T17:29:15.652Z,96512.75
2022-12-01T17:31:42.329Z,96511.88
2022-12-01T17:34:09.031Z,96519.00
2022-12-01T17:36:35.600Z,96506.88
2022-12-01T17:39:02.266Z,96522.53
2022-12-01T17:41:35.502Z,96518.28
2022-12-01T17:44:03.735Z,96516.44
2022-12-01T17:46:31.237Z,96517.41
2022-12-01T17:48:58.598Z,96510.59
2022-12-01T17:51:25.190Z,96524.75
2022-12-01T17:53:53.294Z,96523.03
2022-12-01T17:56:19.865Z,96527.63
2022-12-01T17:58:46.606Z,96525.94
2022-12-01T18:01:16.136Z,96528.78
2022-12-01T18:03:43.433Z,96534.13
2022-12-01T18:06:11.697Z,96532.53
2022-12-01T18:08:39.738Z,96528.94
2022-12-01T18:11:09.834Z,96531.69
2022-12-01T18:13:40.553Z,96529.97
2022-12-01T18:16:16.613Z,96525.72
2022-12-01T18:18:43.883Z,96526.56
2022-12-01T18:21:13.582Z,96530.06
2022-12-01T18:23:40.560Z,96526.03
2022-12-01T18:26:15.367Z,96528.56
2022-12-01T18:28:43.139Z,96515.50
2022-12-01T18:31:15.446Z,96522.50
2022-12-01T18:33:43.493Z,96526.88
2022-12-01T18:36:18.886Z,96522.50
2022-12-01T18:38:47.201Z,96534.13
2022-12-01T18:41:14.800Z,96517.59
2022-12-01T18:43:41.817Z,96526.34
2022-12-01T18:46:10.887Z,96527.31
2022-12-01T18:48:38.137Z,96523.78
2022-12-01T18:51:06.700Z,96526.56
2022-12-01T18:53:35.386Z,96516.00
2022-12-01T18:56:08.115Z,96515.03
2022-12-01T18:58:35.553Z,96516.84
2022-12-01T19:01:03.370Z,96513.50
2022-12-01T19:03:32.169Z,96515.16
2022-12-01T19:05:59.171Z,96518.66
2022-12-01T19:08:25.850Z,96520.50
2022-12-01T19:11:03.440Z,96528.47
2022-12-01T19:13:32.956Z,96519.63
2022-12-01T19:15:59.584Z,96513.44
2022-12-01T19:18:26.499Z,96518.78
2022-12-01T19:20:53.219Z,96524.09
2022-12-01T19:23:19.909Z,96525.91
2022-12-01T19:25:46.527Z,96524.09
2022-12-01T19:28:13.522Z,96517.91
2022-12-01T19:30:46.759Z,96520.59
2022-12-01T19:33:15.537Z,96519.63
2022-12-01T19:35:42.128Z,96513.59
2022-12-01T19:38:10.085Z,96509.06
2022-12-01T19:40:38.940Z,96507.34
2022-12-01T19:43:05.643Z,96505.75
2022-12-01T19:45:37.102Z,96519.81
2022-12-01T19:48:04.879Z,96516.59
2022-12-01T19:50:35.907Z,96522.66
2022-12-01T19:53:02.747Z,96524.56
2022-12-01T19:55:30.499Z,96523.72
2022-12-01T19:57:57.505Z,96528.31
2022-12-01T20:00:25.849Z,96524.91
2022-12-01T20:02:52.575Z,96527.66
2022-12-01T20:05:19.282Z,96533.91
2022-12-01T20:07:45.972Z,96531.47
2022-12-01T20:10:13.499Z,96533.06
2022-12-01T20:12:41.266Z,96531.47
2022-12-01T20:15:08.746Z,96539.47
2022-12-01T20:17:36.612Z,96533.28
2022-12-01T20:20:04.971Z,96535.94
2022-12-01T20:22:35.304Z,96535.16
2022-12-01T20:25:02.417Z,96537.97
2022-12-01T20:27:29.515Z,96538.06
2022-12-01T20:29:56.504Z,96528.47
2022-12-01T20:32:23.978Z,96526.97
2022-12-01T20:34:51.321Z,96530.38
2022-12-01T20:37:18.753Z,96529.50
2022-12-01T20:39:45.780Z,96524.31
2022-12-01T20:42:12.395Z,96522.59
2022-12-01T20:44:40.384Z,96534.19
2022-12-01T20:47:07.195Z,96528.22
2022-12-01T20:49:34.289Z,96523.75
2022-12-01T20:52:01.114Z,96527.50
2022-12-01T20:54:30.000Z,96526.75
2022-12-01T20:56:57.806Z,96527.78
2022-12-01T20:59:24.731Z,96522.75
2022-12-01T21:01:51.969Z,96528.00
2022-12-01T21:04:18.586Z,96537.75
2022-12-01T21:06:45.585Z,96529.78
2022-12-01T21:09:13.316Z,96528.09
2022-12-01T21:12:06.617Z,96526.56
2022-12-01T21:15:05.691Z,96531.69
2022-12-01T21:17:40.042Z,96531.81
2022-12-01T21:20:11.532Z,96532.66
2022-12-01T21:22:38.185Z,96522.41
2022-12-01T21:25:16.756Z,96527.53
2022-12-01T21:27:43.620Z,96518.03
2022-12-01T21:30:19.169Z,96521.53
2022-12-01T21:32:46.886Z,96515.47
2022-12-01T21:35:24.879Z,96518.25
2022-12-01T21:38:03.663Z,96519.19
2022-12-01T21:40:31.071Z,96518.44
2022-12-01T21:43:01.714Z,96517.59
2022-12-01T21:45:31.825Z,96525.56
2022-12-01T21:48:10.999Z,96522.78
2022-12-01T21:50:37.853Z,96525.25
2022-12-01T21:53:12.057Z,96522.41
2022-12-01T21:55:39.236Z,96521.16
2022-12-01T21:58:36.864Z,96526.81
2022-12-01T22:01:15.467Z,96521.00
2022-12-01T22:03:45.845Z,96527.59
2022-12-01T22:06:30.327Z,96529.66
2022-12-01T22:09:01.376Z,96526.50
2022-12-01T22:11:29.548Z,96528.63
2022-12-01T22:14:00.928Z,96527.31
2022-12-01T22:16:29.183Z,96525.06
2022-12-01T22:18:58.141Z,96524.53
2022-12-01T22:21:24.777Z,96524.03
2022-12-01T22:24:12.237Z,96513.03
2022-12-01T22:26:41.696Z,96521.25
2022-12-01T22:29:28.045Z,96526.16
2022-12-01T22:32:14.818Z,96524.75
2022-12-01T22:34:50.008Z,96524.22
2022-12-01T22:37:20.947Z,96529.22
2022-12-01T22:39:49.962Z,96521.78
2022-12-01T22:42:33.922Z,96520.41
2022-12-01T22:45:23.230Z,96515.59
2022-12-01T22:47:50.002Z,96517.94
2022-12-01T22:50:26.549Z,96503.75
2022-12-01T22:52:55.858Z,96518.16
2022-12-01T22:55:22.517Z,96516.97
2022-12-01T22:57:49.189Z,96516.63
2022-12-01T23:00:17.693Z,96512.75
2022-12-01T23:02:44.592Z,96519.56
2022-12-01T23:05:19.559Z,96506.03
2022-12-01T23:07:46.284Z,96514.44
2022-12-01T23:10:23.413Z,96514.31
2022-12-01T23:12:52.399Z,96509.50
2022-12-01T23:15:54.080Z,96513.75
2022-12-01T23:18:22.157Z,96516.22
2022-12-01T23:20:50.805Z,96508.84
2022-12-01T23:23:19.822Z,96513.63
2022-12-01T23:25:49.524Z,96512.56
2022-12-01T23:28:16.318Z,96509.78
2022-12-01T23:30:44.197Z,96507.84
2022-12-01T23:33:14.477Z,96501.94
2022-12-01T23:35:59.460Z,96487.53
2022-12-01T23:38:38.178Z,96483.13
2022-12-01T23:41:13.120Z,96492.38
2022-12-01T23:43:40.332Z,96493.84
2022-12-01T23:46:09.876Z,96488.31
2022-12-01T23:48:52.492Z,96491.72
2022-12-01T23:51:30.669Z,96485.28
2022-12-01T23:53:59.668Z,96465.97
2022-12-01T23:56:28.517Z,96482.38
2022-12-01T23:58:56.258Z,96471.81
